Time;durP1;ratioP1;P1;durP2;ratioP2;P2;SDS_P1;SDS_P2;PMS_P1;PMS_P2;Temp;Humidity;BMP_temperature;BMP_pressure;BME280_temperature;BME280_humidity;BME280_pressure;Samples;Min_cycle;Max_cycle;Signal;HPM_P1;HPM_P2
2023/09/20 00:00:11;;;;;;;1999.90;999.90;;;13.70;99.90;;;;;;5075070;28;20093;-75
2023/09/20 00:02:38;;;;;;;1999.90;999.90;;;13.60;99.90;;;;;;5075512;28;20112;-75
2023/09/20 00:05:04;;;;;;;1999.90;999.90;;;13.50;99.90;;;;;;5075763;28;20647;-75
2023/09/20 00:07:29;;;;;;;1999.90;999.90;;;13.50;99.90;;;;;;5059963;28;20033;-76
2023/09/20 00:09:55;;;;;;;1999.90;999.90;;;13.50;99.90;;;;;;5052624;28;20044;-75
2023/09/20 00:12:20;;;;;;;1999.90;999.90;;;13.50;99.90;;;;;;5055070;28;20041;-76
2023/09/20 00:14:46;;;;;;;1999.90;999.90;;;13.50;99.90;;;;;;5055189;28;20030;-75
2023/09/20 00:17:12;;;;;;;1999.90;999.90;;;13.60;99.90;;;;;;5055022;28;20042;-75
2023/09/20 00:19:39;;;;;;;1999.90;999.90;;;13.50;99.90;;;;;;5055330;28;20026;-75
2023/09/20 00:22:05;;;;;;;1999.90;999.90;;;13.50;99.90;;;;;;5055024;28;20087;-75
2023/09/20 00:24:33;;;;;;;1999.90;999.90;;;13.50;99.90;;;;;;5054880;28;20095;-75
2023/09/20 00:26:59;;;;;;;1999.90;999.90;;;13.60;99.90;;;;;;5073456;28;20116;-75
2023/09/20 00:29:26;;;;;;;1999.90;999.90;;;13.70;99.90;;;;;;5075256;28;20123;-75
2023/09/20 00:31:52;;;;;;;1999.90;999.90;;;13.80;99.90;;;;;;5073387;28;20060;-75
2023/09/20 00:34:17;;;;;;;1999.90;999.90;;;13.80;99.90;;;;;;5075107;28;20482;-75
2023/09/20 00:36:44;;;;;;;1999.90;999.90;;;13.80;99.90;;;;;;5072587;28;20045;-75
2023/09/20 00:39:10;;;;;;;1999.90;999.90;;;13.80;99.90;;;;;;5075154;28;20021;-75
2023/09/20 00:41:36;;;;;;;1999.90;999.90;;;13.70;99.90;;;;;;5075004;28;20906;-75
2023/09/20 00:44:02;;;;;;;1999.90;999.90;;;13.60;99.90;;;;;;5075207;28;20115;-75
2023/09/20 00:46:29;;;;;;;1999.90;999.90;;;13.60;99.90;;;;;;5072937;28;20068;-76
2023/09/20 00:48:56;;;;;;;1999.90;999.90;;;13.50;99.90;;;;;;5054752;28;20029;-75
2023/09/20 00:51:22;;;;;;;1999.90;999.90;;;13.50;99.90;;;;;;5054641;28;20041;-76
2023/09/20 00:53:48;;;;;;;1999.90;999.90;;;13.50;99.90;;;;;;5055053;28;20475;-75
2023/09/20 00:56:14;;;;;;;1999.90;999.90;;;13.50;99.90;;;;;;5054440;28;20298;-75
2023/09/20 00:58:43;;;;;;;1999.90;999.90;;;13.50;99.90;;;;;;5057918;28;20040;-76
2023/09/20 01:01:09;;;;;;;1999.90;999.90;;;13.40;99.90;;;;;;5074368;28;20513;-75
2023/09/20 01:03:35;;;;;;;1999.90;999.90;;;13.40;99.90;;;;;;5074982;28;20029;-76
2023/09/20 01:06:04;;;;;;;1999.90;999.90;;;13.30;99.90;;;;;;5074719;28;20036;-76
2023/09/20 01:08:32;;;;;;;1999.90;999.90;;;13.30;99.90;;;;;;5074547;28;20442;-75
2023/09/20 01:10:59;;;;;;;1999.90;999.90;;;13.20;99.90;;;;;;5071991;28;20041;-75
2023/09/20 01:13:25;;;;;;;1999.90;999.90;;;13.20;99.90;;;;;;5059907;28;20061;-75
2023/09/20 01:15:50;;;;;;;1999.90;999.90;;;13.20;99.90;;;;;;5054210;28;20116;-75
2023/09/20 01:18:16;;;;;;;1999.90;999.90;;;13.20;99.90;;;;;;5054857;28;20037;-75
2023/09/20 01:20:41;;;;;;;1999.90;999.90;;;13.30;99.90;;;;;;5053849;28;20033;-75
2023/09/20 01:23:07;;;;;;;1999.90;999.90;;;13.30;99.90;;;;;;5064203;28;20041;-75
2023/09/20 01:25:42;;;;;;;1999.90;999.90;;;13.20;99.90;;;;;;5074304;28;20041;-75
2023/09/20 01:28:09;;;;;;;1999.90;999.90;;;13.30;99.90;;;;;;5074709;28;20037;-75
2023/09/20 01:30:37;;;;;;;1999.90;999.90;;;13.20;99.90;;;;;;5074258;28;20021;-75
2023/09/20 01:33:06;;;;;;;1999.90;999.90;;;13.20;99.90;;;;;;5073036;28;20557;-76
2023/09/20 01:35:32;;;;;;;1999.90;999.90;;;13.10;99.90;;;;;;5074273;28;20029;-75
2023/09/20 01:37:58;;;;;;;1999.90;999.90;;;13.20;99.90;;;;;;5073907;28;20036;-75
2023/09/20 01:40:28;;;;;;;1999.90;999.90;;;13.20;99.90;;;;;;5074349;28;20041;-75
2023/09/20 01:42:57;;;;;;;1999.90;999.90;;;13.20;99.90;;;;;;5096470;22;20124;-78
2023/09/20 01:45:23;;;;;;;1999.90;999.90;;;13.10;99.90;;;;;;5074182;28;20045;-78
2023/09/20 01:47:51;;;;;;;1999.90;999.90;;;13.20;99.90;;;;;;5104390;28;20477;-77
2023/09/20 01:50:21;;;;;;;1999.90;999.90;;;13.20;99.90;;;;;;5094582;28;20115;-78
2023/09/20 01:52:48;;;;;;;1999.90;999.90;;;13.20;99.90;;;;;;5094348;28;20031;-77
2023/09/20 01:55:17;;;;;;;1999.90;999.90;;;13.20;99.90;;;;;;5093109;28;20048;-77
2023/09/20 01:57:53;;;;;;;1999.90;999.90;;;13.20;99.90;;;;;;5092701;28;20025;-78
2023/09/20 02:00:25;;;;;;;1999.90;999.90;;;13.30;99.90;;;;;;5094268;28;20036;-77
2023/09/20 02:02:53;;;;;;;1999.90;999.90;;;13.40;99.90;;;;;;5094530;28;20474;-78
2023/09/20 02:05:21;;;;;;;1999.90;999.90;;;13.40;99.90;;;;;;5094357;28;20127;-78
2023/09/20 02:07:47;;;;;;;1999.90;999.90;;;13.50;99.90;;;;;;5094108;28;20032;-78
2023/09/20 02:10:16;;;;;;;1999.90;999.90;;;13.60;99.90;;;;;;5092880;28;20086;-78
2023/09/20 02:12:46;;;;;;;1999.90;999.90;;;13.70;99.90;;;;;;5092607;28;20566;-78
2023/09/20 02:15:12;;;;;;;1999.90;999.90;;;13.70;99.90;;;;;;5094297;28;20816;-77
2023/09/20 02:17:39;;;;;;;1999.90;999.90;;;13.70;99.90;;;;;;5093976;28;20028;-78
2023/09/20 02:20:09;;;;;;;1999.90;999.90;;;13.80;99.90;;;;;;5094255;28;20516;-77
2023/09/20 02:22:36;;;;;;;1999.90;999.90;;;13.90;99.90;;;;;;5093484;28;20580;-78
2023/09/20 02:25:05;;;;;;;1999.90;999.90;;;14.00;99.90;;;;;;5097647;28;20029;-77
2023/09/20 02:27:31;;;;;;;1999.90;999.90;;;14.00;99.90;;;;;;5097236;28;20494;-77
2023/09/20 02:29:57;;;;;;;1999.90;999.90;;;14.10;99.90;;;;;;5086598;28;20033;-78
2023/09/20 02:32:23;;;;;;;1999.90;999.90;;;14.20;99.90;;;;;;5076891;28;20036;-78
2023/09/20 02:34:51;;;;;;;1999.90;999.90;;;14.30;99.90;;;;;;5077237;28;20033;-78
2023/09/20 02:37:17;;;;;;;1999.90;999.90;;;14.30;99.90;;;;;;5076641;28;20025;-78
2023/09/20 02:39:42;;;;;;;1999.90;999.90;;;14.20;99.90;;;;;;5075449;28;20032;-77
2023/09/20 02:42:08;;;;;;;1999.90;999.90;;;14.40;99.90;;;;;;5077081;28;20714;-77
2023/09/20 02:44:34;;;;;;;1999.90;999.90;;;14.50;99.90;;;;;;5077700;28;20123;-78
2023/09/20 02:46:59;;;;;;;1999.90;999.90;;;14.40;99.90;;;;;;5095510;28;20119;-77
2023/09/20 02:49:25;;;;;;;1999.90;999.90;;;14.50;99.90;;;;;;5097371;28;20462;-77
2023/09/20 02:51:52;;;;;;;1999.90;999.90;;;14.40;99.90;;;;;;5097387;28;20048;-77
2023/09/20 02:54:18;;;;;;;1999.90;999.90;;;14.40;99.90;;;;;;5086165;28;20033;-77
2023/09/20 02:56:44;;;;;;;1999.90;999.90;;;14.30;99.90;;;;;;5085318;28;20032;-77
2023/09/20 02:59:10;;;;;;;1999.90;999.90;;;14.30;99.90;;;;;;5075426;28;20394;-77
2023/09/20 03:01:36;;;;;;;1999.90;999.90;;;14.40;99.90;;;;;;5076537;28;20087;-78
2023/09/20 03:04:03;;;;;;;1999.90;999.90;;;14.50;99.90;;;;;;5076408;28;20036;-78
2023/09/20 03:06:29;;;;;;;1999.90;999.90;;;14.30;99.90;;;;;;5088851;28;20067;-77
2023/09/20 03:08:54;;;;;;;1999.90;999.90;;;14.40;99.90;;;;;;5076802;28;20064;-78
2023/09/20 03:11:21;;;;;;;1999.90;999.90;;;14.50;99.90;;;;;;5076671;28;20040;-77
2023/09/20 03:13:48;;;;;;;1999.90;999.90;;;14.30;99.90;;;;;;5075060;28;20690;-78
2023/09/20 03:16:19;;;;;;;1999.90;999.90;;;14.50;99.90;;;;;;5076335;28;20032;-77
2023/09/20 03:18:50;;;;;;;1999.90;999.90;;;14.40;99.90;;;;;;5056403;28;20043;-77
2023/09/20 03:21:15;;;;;;;1999.90;999.90;;;14.50;99.90;;;;;;5056410;28;20503;-77
2023/09/20 03:23:42;;;;;;;1999.90;999.90;;;14.40;99.90;;;;;;5054312;28;20045;-77
2023/09/20 03:26:09;;;;;;;1999.90;999.90;;;14.40;99.90;;;;;;5054341;28;20033;-77
2023/09/20 03:28:35;;;;;;;1999.90;999.90;;;14.30;99.90;;;;;;5056134;28;20095;-77
2023/09/20 03:31:06;;;;;;;1999.90;999.90;;;14.40;99.90;;;;;;5054673;28;20548;-77
2023/09/20 03:33:32;;;;;;;1999.90;999.90;;;14.40;99.90;;;;;;5074280;28;20029;-77
2023/09/20 03:36:09;;;;;;;1999.90;999.90;;;14.60;99.90;;;;;;5075580;28;20163;-77
2023/09/20 03:38:35;;;;;;;1999.90;999.90;;;14.60;99.90;;;;;;5074846;28;20059;-77
2023/09/20 03:41:01;;;;;;;1999.90;999.90;;;14.60;99.90;;;;;;5076171;28;20083;-77
2023/09/20 03:43:27;;;;;;;1999.90;999.90;;;14.60;99.90;;;;;;5080875;28;20044;-78
2023/09/20 03:45:54;;;;;;;1999.90;999.90;;;14.50;99.90;;;;;;5094650;28;20060;-77
2023/09/20 03:48:20;;;;;;;1999.90;999.90;;;14.50;99.90;;;;;;5096208;28;20025;-77
2023/09/20 03:50:45;;;;;;;1999.90;999.90;;;14.40;99.90;;;;;;5091209;28;20048;-77
2023/09/20 03:53:11;;;;;;;1999.90;999.90;;;14.40;99.90;;;;;;5075652;28;20037;-77
2023/09/20 03:55:37;;;;;;;1999.90;999.90;;;14.30;99.90;;;;;;5075925;28;20040;-77
2023/09/20 03:58:03;;;;;;;1999.90;999.90;;;14.40;99.90;;;;;;5075754;28;20060;-77
2023/09/20 04:00:31;;;;;;;1999.90;999.90;;;14.30;99.90;;;;;;5074408;28;20041;-77
2023/09/20 04:02:58;;;;;;;1999.90;999.90;;;14.50;99.90;;;;;;5079937;28;20575;-77
2023/09/20 04:05:24;;;;;;;1999.90;999.90;;;14.30;99.90;;;;;;5095997;28;20039;-77
2023/09/20 04:07:50;;;;;;;1999.90;999.90;;;14.30;99.90;;;;;;5095677;28;20028;-77
2023/09/20 04:10:16;;;;;;;1999.90;999.90;;;14.40;99.90;;;;;;5079714;28;20133;-77
2023/09/20 04:12:42;;;;;;;1999.90;999.90;;;14.40;99.90;;;;;;5074333;28;20040;-77
2023/09/20 04:15:08;;;;;;;1999.90;999.90;;;14.30;99.90;;;;;;5075535;28;20029;-79
2023/09/20 04:17:35;;;;;;;1999.90;999.90;;;14.30;99.90;;;;;;5075361;28;20033;-78
2023/09/20 04:20:05;;;;;;;1999.90;999.90;;;14.30;99.90;;;;;;5075537;28;20033;-77
2023/09/20 04:22:31;;;;;;;1999.90;999.90;;;14.20;99.90;;;;;;5073747;28;20041;-77
2023/09/20 04:24:58;;;;;;;1999.90;999.90;;;14.30;99.90;;;;;;5075292;28;20524;-77
2023/09/20 04:27:24;;;;;;;1999.90;999.90;;;14.30;99.90;;;;;;5073696;28;20128;-77
2023/09/20 04:29:49;;;;;;;1999.90;999.90;;;14.40;99.90;;;;;;5075493;28;20100;-78
2023/09/20 04:32:16;;;;;;;1999.90;999.90;;;14.40;99.90;;;;;;5085287;28;20131;-77
2023/09/20 04:34:42;;;;;;;1999.90;999.90;;;14.40;99.90;;;;;;5095733;28;20139;-77
2023/09/20 04:37:08;;;;;;;1999.90;999.90;;;14.40;99.90;;;;;;5093757;28;20521;-77
2023/09/20 04:39:34;;;;;;;1999.90;999.90;;;14.50;99.90;;;;;;5081797;28;20044;-77
2023/09/20 04:41:59;;;;;;;1999.90;999.90;;;14.50;99.90;;;;;;5075233;28;20044;-77
2023/09/20 04:44:25;;;;;;;1999.90;999.90;;;14.40;99.90;;;;;;5073519;28;20029;-77
2023/09/20 04:46:50;;;;;;;1999.90;999.90;;;14.50;99.90;;;;;;5074892;28;20075;-77
2023/09/20 04:49:16;;;;;;;1999.90;999.90;;;14.60;99.90;;;;;;5075108;28;20060;-78
2023/09/20 04:51:42;;;;;;;1999.90;999.90;;;14.60;99.90;;;;;;5075095;28;20037;-77
2023/09/20 04:54:08;;;;;;;1999.90;999.90;;;14.50;99.90;;;;;;5074937;28;20403;-78
2023/09/20 04:56:34;;;;;;;1999.90;999.90;;;14.60;99.90;;;;;;5073293;28;20040;-76
2023/09/20 04:59:00;;;;;;;1999.90;999.90;;;14.60;99.90;;;;;;5075004;28;20059;-77
2023/09/20 05:01:26;;;;;;;1999.90;999.90;;;14.40;99.90;;;;;;5075191;28;20040;-77
2023/09/20 05:03:51;;;;;;;1999.90;999.90;;;14.40;99.90;;;;;;5074737;28;20033;-77
2023/09/20 05:06:20;;;;;;;1999.90;999.90;;;14.30;99.90;;;;;;5074746;28;20152;-77
2023/09/20 05:08:46;;;;;;;1999.90;999.90;;;14.20;99.90;;;;;;5074877;28;20029;-77
2023/09/20 05:11:13;;;;;;;1999.90;999.90;;;14.20;99.90;;;;;;5075403;28;20405;-77
2023/09/20 05:13:40;;;;;;;1999.90;999.90;;;14.20;99.90;;;;;;5093254;28;20674;-78
2023/09/20 05:16:06;;;;;;;1999.90;999.90;;;14.20;99.90;;;;;;5094974;28;20067;-77
2023/09/20 05:18:31;;;;;;;1999.90;999.90;;;14.30;99.90;;;;;;5095572;28;20055;-77
2023/09/20 05:20:58;;;;;;;1999.90;999.90;;;14.30;99.90;;;;;;5095372;28;20040;-77
2023/09/20 05:23:24;;;;;;;1999.90;999.90;;;14.40;99.90;;;;;;5094304;28;20506;-80
2023/09/20 05:25:50;;;;;;;1999.90;999.90;;;14.30;99.90;;;;;;5095317;28;20482;-77
2023/09/20 05:28:16;;;;;;;1999.90;999.90;;;14.20;99.90;;;;;;5093724;28;20029;-78
2023/09/20 05:30:44;;;;;;;1999.90;999.90;;;14.30;99.90;;;;;;5095699;28;20040;-79
2023/09/20 05:33:12;;;;;;;1999.90;999.90;;;14.30;99.90;;;;;;5094542;28;20620;-78
2023/09/20 05:35:41;;;;;;;1999.90;999.90;;;14.30;99.90;;;;;;5093634;28;20421;-79
2023/09/20 05:38:07;;;;;;;1999.90;999.90;;;14.30;99.90;;;;;;5093404;28;20085;-79
2023/09/20 05:40:34;;;;;;;1999.90;999.90;;;14.20;99.90;;;;;;5085648;28;20056;-82
2023/09/20 05:43:01;;;;;;;1999.90;999.90;;;14.30;99.90;;;;;;5088042;28;20036;-78
2023/09/20 05:45:26;;;;;;;1999.90;999.90;;;14.30;99.90;;;;;;5094845;28;20028;-79
2023/09/20 05:47:54;;;;;;;1999.90;999.90;;;14.40;99.90;;;;;;5092710;28;20059;-79
2023/09/20 05:50:33;;;;;;;1999.90;999.90;;;14.50;99.90;;;;;;5084869;28;20047;-79
2023/09/20 05:53:03;;;;;;;1999.90;999.90;;;14.50;99.90;;;;;;5064875;28;20083;-79
2023/09/20 05:55:33;;;;;;;1999.90;999.90;;;14.90;99.90;;;;;;5071655;28;20526;-80
2023/09/20 05:58:02;;;;;;;1999.90;999.90;;;14.90;99.90;;;;;;5073589;28;20175;-78
2023/09/20 06:00:29;;;;;;;1999.90;999.90;;;15.20;99.90;;;;;;5077146;28;20589;-79
2023/09/20 06:02:57;;;;;;;1999.90;999.90;;;15.50;99.90;;;;;;5076769;28;20033;-79
2023/09/20 06:05:24;;;;;;;1999.90;999.90;;;15.50;99.90;;;;;;5077646;28;20029;-78
2023/09/20 06:07:55;;;;;;;1999.90;999.90;;;15.70;99.90;;;;;;5075699;28;20064;-79
2023/09/20 06:10:22;;;;;;;1999.90;999.90;;;15.80;99.90;;;;;;5077579;28;20434;-78
2023/09/20 06:12:48;;;;;;;1999.90;999.90;;;15.90;99.90;;;;;;5075802;28;20059;-78
2023/09/20 06:15:14;;;;;;;1999.90;999.90;;;16.00;99.90;;;;;;5075882;28;20075;-78
2023/09/20 06:17:40;;;;;;;1999.90;999.90;;;16.00;99.90;;;;;;5075867;28;20060;-78
2023/09/20 06:20:12;;;;;;;1999.90;999.90;;;16.10;99.90;;;;;;5077258;28;20077;-78
2023/09/20 06:22:39;;;;;;;1999.90;999.90;;;16.00;99.90;;;;;;5077312;28;20029;-78
2023/09/20 06:25:06;;;;;;;1999.90;999.90;;;16.10;99.90;;;;;;5077818;28;20025;-78
2023/09/20 06:27:32;;;;;;;1999.90;999.90;;;16.20;99.90;;;;;;5077238;28;20033;-78
2023/09/20 06:30:12;;;;;;;1999.90;999.90;;;16.20;99.90;;;;;;5078439;28;20065;-78
2023/09/20 06:32:39;;;;;;;1999.90;999.90;;;16.30;99.90;;;;;;5081182;28;20091;-79
2023/09/20 06:35:06;;;;;;;1999.90;999.90;;;16.30;99.90;;;;;;5075875;28;20033;-78
2023/09/20 06:37:33;;;;;;;1999.90;999.90;;;16.20;99.90;;;;;;5076931;28;20063;-78
2023/09/20 06:39:59;;;;;;;1999.90;999.90;;;16.20;99.90;;;;;;5075673;28;20486;-78
2023/09/20 06:42:28;;;;;;;1999.90;999.90;;;16.20;99.90;;;;;;5074995;28;20045;-78
2023/09/20 06:44:55;;;;;;;1999.90;999.90;;;16.20;99.90;;;;;;5075526;28;20470;-78
2023/09/20 06:47:21;;;;;;;1999.90;999.90;;;16.30;99.90;;;;;;5075308;28;20064;-79
2023/09/20 06:49:47;;;;;;;1999.90;999.90;;;16.30;99.90;;;;;;5077078;28;20095;-78
2023/09/20 06:52:12;;;;;;;1999.90;999.90;;;16.30;99.90;;;;;;5081381;28;20041;-78
2023/09/20 06:54:38;;;;;;;1999.90;999.90;;;16.30;99.90;;;;;;5076920;28;20075;-78
2023/09/20 06:57:05;;;;;;;1999.90;999.90;;;16.50;99.90;;;;;;5075269;28;20067;-78
2023/09/20 06:59:36;;;;;;;1999.90;999.90;;;16.50;99.90;;;;;;5079963;28;20044;-78
2023/09/20 07:02:02;;;;;;;1999.90;999.90;;;16.60;99.90;;;;;;5095630;28;20044;-79
2023/09/20 07:04:28;;;;;;;1999.90;999.90;;;16.60;99.90;;;;;;5097014;28;20473;-78
2023/09/20 07:06:57;;;;;;;1999.90;999.90;;;16.60;99.90;;;;;;5095334;28;20033;-78
2023/09/20 07:09:23;;;;;;;1999.90;999.90;;;16.70;99.90;;;;;;5096076;28;20510;-78
2023/09/20 07:11:50;;;;;;;1999.90;999.90;;;16.80;99.90;;;;;;5090421;28;20033;-79
2023/09/20 07:14:20;;;;;;;1999.90;999.90;;;16.90;99.90;;;;;;5075051;28;20028;-78
2023/09/20 07:16:50;;;;;;;1999.90;999.90;;;17.10;99.90;;;;;;5075098;28;20152;-78
2023/09/20 07:19:17;;;;;;;1999.90;999.90;;;17.30;99.90;;;;;;5074985;28;20506;-78
2023/09/20 07:21:44;;;;;;;1999.90;999.90;;;17.60;99.90;;;;;;5074873;28;20041;-78
2023/09/20 07:24:12;;;;;;;1999.90;999.90;;;17.80;99.90;;;;;;5074776;28;20486;-78
2023/09/20 07:26:44;;;;;;;1999.90;999.90;;;18.20;99.90;;;;;;5076231;28;20115;-78
2023/09/20 07:29:14;;;;;;;1999.90;999.90;;;18.40;99.90;;;;;;5074899;28;20119;-79
2023/09/20 07:31:40;;;;;;;1999.90;999.90;;;18.80;99.90;;;;;;5074803;28;20037;-79
2023/09/20 07:34:12;;;;;;;1999.90;999.90;;;19.20;99.90;;;;;;5076492;28;20024;-79
2023/09/20 07:36:40;;;;;;;1999.90;999.90;;;19.30;99.90;;;;;;5074763;28;20120;-79
2023/09/20 07:39:12;;;;;;;1999.90;999.90;;;19.60;99.90;;;;;;5076329;28;20112;-79
2023/09/20 07:41:50;;;;;;;1999.90;999.90;;;19.90;99.90;;;;;;5094498;28;20047;-79
2023/09/20 07:44:24;;;;;;;1999.90;999.90;;;19.90;99.90;;;;;;5096743;28;20063;-78
2023/09/20 07:46:54;;;;;;;1999.90;999.90;;;20.10;99.90;;;;;;5094891;28;20032;-78
2023/09/20 07:49:20;;;;;;;1999.90;999.90;;;19.90;99.90;;;;;;5076581;28;20495;-78
2023/09/20 07:51:46;;;;;;;1999.90;999.90;;;20.00;99.90;;;;;;5076139;28;20048;-79
2023/09/20 07:54:14;;;;;;;1999.90;999.90;;;20.10;99.90;;;;;;5074340;28;20029;-79
2023/09/20 07:56:43;;;;;;;1999.90;999.90;;;20.00;99.90;;;;;;5082644;28;20548;-79
2023/09/20 07:59:09;;;;;;;1999.90;999.90;;;20.10;99.90;;;;;;5074408;28;20509;-78
2023/09/20 08:01:34;;;;;;;1999.90;999.90;;;20.10;99.90;;;;;;5079135;28;20121;-78
2023/09/20 08:04:02;;;;;;;1999.90;999.90;;;20.00;99.90;;;;;;5092284;28;20058;-79
2023/09/20 08:06:33;;;;;;;1999.90;999.90;;;19.90;99.90;;;;;;5074056;28;20039;-78
2023/09/20 08:08:59;;;;;;;1999.90;999.90;;;19.60;99.90;;;;;;5075882;28;20495;-78
2023/09/20 08:11:26;;;;;;;1999.90;999.90;;;19.70;99.90;;;;;;5074251;28;20069;-78
2023/09/20 08:13:54;;;;;;;1999.90;999.90;;;19.70;99.90;;;;;;5075622;28;20096;-78
2023/09/20 08:16:21;;;;;;;1999.90;999.90;;;19.60;99.90;;;;;;5075414;28;20036;-78
2023/09/20 08:19:04;;;;;;;1999.90;999.90;;;19.80;99.90;;;;;;5073999;28;20174;-78
2023/09/20 08:21:32;;;;;;;1999.90;999.90;;;20.00;99.90;;;;;;5072445;28;20128;-78
2023/09/20 08:59:57;;;;;;;1999.90;999.90;;;20.90;99.90;;;;;;5075738;28;20821;-79
2023/09/20 09:02:25;;;;;;;1999.90;999.90;;;21.10;99.90;;;;;;5073828;28;20041;-79
2023/09/20 09:04:53;;;;;;;1999.90;999.90;;;21.10;99.90;;;;;;5074959;28;20136;-79
2023/09/20 09:07:19;;;;;;;1999.90;999.90;;;21.10;99.90;;;;;;5075054;28;20029;-79
2023/09/20 09:09:49;;;;;;;1999.90;999.90;;;21.10;99.90;;;;;;5073824;28;20039;-79
2023/09/20 09:12:15;;;;;;;1999.90;999.90;;;21.20;99.90;;;;;;5074811;28;20033;-79
2023/09/20 09:14:41;;;;;;;1999.90;999.90;;;21.10;99.90;;;;;;5074612;28;20059;-79
2023/09/20 09:17:08;;;;;;;1999.90;999.90;;;21.20;99.90;;;;;;5074579;28;20079;-79
2023/09/20 09:19:35;;;;;;;1999.90;999.90;;;21.20;99.90;;;;;;5074999;28;20061;-80
2023/09/20 09:22:02;;;;;;;1999.90;999.90;;;21.20;99.90;;;;;;5092196;28;20041;-80
2023/09/20 09:24:41;;;;;;;1999.90;999.90;;;20.80;99.90;;;;;;5093563;28;20036;-79
2023/09/20 09:27:08;;;;;;;1999.90;999.90;;;20.80;99.90;;;;;;5095075;28;20028;-79
2023/09/20 09:29:33;;;;;;;1999.90;999.90;;;20.70;99.90;;;;;;5093570;28;20028;-79
2023/09/20 09:32:04;;;;;;;1999.90;999.90;;;20.70;99.90;;;;;;5093838;28;20089;-80
2023/09/20 09:34:30;;;;;;;1999.90;999.90;;;20.70;99.90;;;;;;5098412;28;20036;-80
2023/09/20 09:36:56;;;;;;;1999.90;999.90;;;20.80;99.90;;;;;;5096945;28;20039;-80
2023/09/20 09:39:22;;;;;;;1999.90;999.90;;;21.00;99.90;;;;;;5097076;28;20033;-79
2023/09/20 09:41:47;;;;;;;1999.90;999.90;;;20.90;99.90;;;;;;5080842;28;20068;-79
2023/09/20 09:44:14;;;;;;;1999.90;999.90;;;20.90;99.90;;;;;;5077744;28;20035;-79
2023/09/20 09:46:42;;;;;;;1999.90;999.90;;;21.20;99.90;;;;;;5077601;28;20083;-79
2023/09/20 09:49:11;;;;;;;1999.90;999.90;;;21.40;99.90;;;;;;5076558;28;20035;-79
2023/09/20 09:51:45;;;;;;;1999.90;999.90;;;21.60;99.90;;;;;;5080248;28;20032;-79
2023/09/20 09:54:15;;;;;;;1999.90;999.90;;;21.70;99.90;;;;;;5098284;28;20032;-79
2023/09/20 09:56:41;;;;;;;1999.90;999.90;;;21.70;99.90;;;;;;5098113;28;20076;-79
2023/09/20 09:59:07;;;;;;;1999.90;999.90;;;21.90;99.90;;;;;;5097060;28;20028;-79
2023/09/20 10:01:36;;;;;;;1999.90;999.90;;;22.20;99.90;;;;;;5083529;28;20049;-79
2023/09/20 10:04:05;;;;;;;1999.90;999.90;;;22.40;99.90;;;;;;5076299;28;20032;-79
2023/09/20 10:06:35;;;;;;;1999.90;999.90;;;22.60;99.90;;;;;;5075425;28;21195;-79
2023/09/20 10:09:05;;;;;;;1999.90;999.90;;;22.80;99.90;;;;;;5075819;28;20041;-79
2023/09/20 10:11:31;;;;;;;1999.90;999.90;;;23.00;99.90;;;;;;5076702;28;20040;-78
2023/09/20 10:14:00;;;;;;;1999.90;999.90;;;23.00;99.90;;;;;;5076883;28;20404;-79
2023/09/20 10:16:28;;;;;;;1999.90;999.90;;;23.20;97.40;;;;;;5077408;28;20028;-82
2023/09/20 10:18:53;;;;;;;1999.90;999.90;;;23.30;97.90;;;;;;5076494;28;20033;-80
2023/09/20 10:21:26;;;;;;;1999.90;999.90;;;23.30;98.20;;;;;;5077429;28;20047;-78
2023/09/20 10:24:00;;;;;;;1999.90;999.90;;;23.10;98.30;;;;;;5076232;28;20025;-82
2023/09/20 10:26:27;;;;;;;1999.90;999.90;;;23.40;98.40;;;;;;5075887;28;20035;-78
2023/09/20 10:29:00;;;;;;;1999.90;999.90;;;23.70;98.10;;;;;;5076090;28;20119;-78
2023/09/20 10:31:29;;;;;;;1999.90;999.90;;;23.80;96.20;;;;;;5076148;28;20041;-78
2023/09/20 10:33:55;;;;;;;1999.90;999.90;;;23.90;96.80;;;;;;5077904;28;20507;-80
2023/09/20 10:36:29;;;;;;;1999.90;999.90;;;24.00;96.30;;;;;;5075564;28;20406;-79
2023/09/20 10:39:21;;;;;;;1999.90;999.90;;;24.10;96.40;;;;;;5077699;28;20028;-79
2023/09/20 10:41:51;;;;;;;1999.90;999.90;;;24.10;96.40;;;;;;5094960;28;20045;-79
2023/09/20 10:44:30;;;;;;;1999.90;999.90;;;24.20;93.90;;;;;;5080212;28;20040;-78
2023/09/20 10:47:06;;;;;;;1999.90;999.90;;;24.20;92.90;;;;;;5076789;28;20037;-78
2023/09/20 10:49:45;;;;;;;1999.90;999.90;;;24.20;92.80;;;;;;5075803;28;20032;-79
2023/09/20 10:52:11;;;;;;;1999.90;999.90;;;24.10;91.70;;;;;;5056861;28;20038;-77
2023/09/20 10:54:40;;;;;;;1999.90;999.90;;;24.00;92.20;;;;;;5056511;28;20026;-77
2023/09/20 10:57:15;;;;;;;1999.90;999.90;;;23.80;92.20;;;;;;5056503;28;20044;-77
2023/09/20 10:59:44;;;;;;;1999.90;999.90;;;23.70;92.00;;;;;;5097315;28;20024;-78
2023/09/20 11:02:16;;;;;;;1999.90;999.90;;;23.60;93.70;;;;;;5094295;28;20060;-76
2023/09/20 11:04:42;;;;;;;1999.90;999.90;;;23.80;92.20;;;;;;5095528;28;20033;-76
2023/09/20 11:07:09;;;;;;;1999.90;999.90;;;23.90;92.80;;;;;;5096911;28;20040;-77
2023/09/20 11:09:35;;;;;;;1999.90;999.90;;;23.80;92.40;;;;;;5095663;28;20037;-77
2023/09/20 11:12:08;;;;;;;1999.90;999.90;;;24.00;93.20;;;;;;5096992;28;20032;-77
2023/09/20 11:14:44;;;;;;;1999.90;999.90;;;24.10;92.30;;;;;;5096976;28;20024;-77
2023/09/20 11:17:14;;;;;;;1999.90;999.90;;;24.20;92.20;;;;;;5085674;28;20033;-77
2023/09/20 11:19:40;;;;;;;1999.90;999.90;;;24.50;91.50;;;;;;5075085;28;20025;-77
2023/09/20 11:22:06;;;;;;;1999.90;999.90;;;24.30;91.50;;;;;;5076533;28;20086;-77
2023/09/20 11:24:32;;;;;;;1999.90;999.90;;;24.20;92.00;;;;;;5076198;28;20120;-78
2023/09/20 11:26:58;;;;;;;1999.90;999.90;;;24.30;91.20;;;;;;5095524;28;20033;-77
2023/09/20 11:29:24;;;;;;;1999.90;999.90;;;24.40;90.00;;;;;;5097923;28;20033;-81
2023/09/20 11:31:54;;;;;;;1999.90;999.90;;;24.50;89.60;;;;;;5094927;28;20516;-78
2023/09/20 11:34:20;;;;;;;1999.90;999.90;;;24.30;89.20;;;;;;5076853;28;20037;-77
2023/09/20 11:36:53;;;;;;;1999.90;999.90;;;24.40;90.70;;;;;;5074508;28;20074;-77
2023/09/20 11:39:26;;;;;;;1999.90;999.90;;;24.50;90.30;;;;;;5076571;28;20029;-76
2023/09/20 11:41:58;;;;;;;1999.90;999.90;;;24.60;89.90;;;;;;5074554;28;20079;-78
2023/09/20 11:44:24;;;;;;;1999.90;999.90;;;24.70;88.90;;;;;;5074220;28;20033;-78
2023/09/20 11:46:57;;;;;;;1999.90;999.90;;;24.90;89.20;;;;;;5075929;28;20037;-77
2023/09/20 11:49:24;;;;;;;1999.90;999.90;;;25.10;86.80;;;;;;5075882;28;20522;-78
2023/09/20 11:51:50;;;;;;;1999.90;999.90;;;25.10;89.20;;;;;;5076010;28;20512;-78
2023/09/20 11:54:16;;;;;;;1999.90;999.90;;;24.80;89.60;;;;;;5092759;28;20071;-78
2023/09/20 11:56:47;;;;;;;1999.90;999.90;;;25.00;89.00;;;;;;5093729;28;20059;-78
2023/09/20 11:59:14;;;;;;;1999.90;999.90;;;25.40;90.10;;;;;;5088562;28;20037;-78
2023/09/20 12:01:41;;;;;;;1999.90;999.90;;;25.60;90.40;;;;;;5075773;28;20045;-78
2023/09/20 12:04:07;;;;;;;1999.90;999.90;;;25.50;87.10;;;;;;5075595;28;20510;-78
2023/09/20 12:06:33;;;;;;;1999.90;999.90;;;25.20;85.20;;;;;;5075564;28;20090;-77
2023/09/20 12:09:01;;;;;;;1999.90;999.90;;;25.20;88.90;;;;;;5082495;28;20074;-78
2023/09/20 12:11:28;;;;;;;1999.90;999.90;;;25.50;85.40;;;;;;5094490;28;20040;-78
2023/09/20 12:13:56;;;;;;;1999.90;999.90;;;25.70;84.50;;;;;;5096376;28;20494;-79
2023/09/20 12:16:25;;;;;;;1999.90;999.90;;;25.70;84.00;;;;;;5084695;28;20033;-79
2023/09/20 12:18:50;;;;;;;1999.90;999.90;;;25.80;84.80;;;;;;5074497;28;20025;-79
2023/09/20 12:21:16;;;;;;;1999.90;999.90;;;25.60;89.20;;;;;;5075012;28;20052;-79
2023/09/20 12:23:42;;;;;;;1999.90;999.90;;;26.00;85.00;;;;;;5075977;28;20147;-79
2023/09/20 12:26:12;;;;;;;1999.90;999.90;;;26.00;85.60;;;;;;5075799;28;20486;-79
2023/09/20 12:28:38;;;;;;;1999.90;999.90;;;26.10;84.40;;;;;;5075010;28;20101;-79
2023/09/20 12:31:04;;;;;;;1999.90;999.90;;;26.30;83.80;;;;;;5074291;28;20037;-79
2023/09/20 12:33:30;;;;;;;1999.90;999.90;;;26.60;84.90;;;;;;5073624;28;20029;-78
2023/09/20 12:35:59;;;;;;;1999.90;999.90;;;26.70;84.60;;;;;;5073821;28;20040;-78